Time;durP1;ratioP1;P1;durP2;ratioP2;P2;SDS_P1;SDS_P2;PMS_P1;PMS_P2;Temp;Humidity;BMP_temperature;BMP_pressure;BME280_temperature;BME280_humidity;BME280_pressure;Samples;Min_cycle;Max_cycle;Signal;HPM_P1;HPM_P2
2023/08/23 00:01:37;;;;;;;21.02;16.25;;;14.90;99.90;;;;;;5017428;28;20072;-66
2023/08/23 00:04:03;;;;;;;21.20;16.63;;;14.90;99.90;;;;;;5016356;28;20466;-66
2023/08/23 00:06:28;;;;;;;19.25;15.50;;;14.90;99.90;;;;;;5015648;28;20049;-66
2023/08/23 00:08:54;;;;;;;21.30;17.67;;;14.90;99.90;;;;;;5016034;28;20894;-66
2023/08/23 00:11:20;;;;;;;24.60;17.90;;;15.00;99.90;;;;;;5000087;28;20102;-66
2023/08/23 00:13:46;;;;;;;26.17;19.52;;;14.90;99.90;;;;;;4999154;28;20514;-66
2023/08/23 00:16:12;;;;;;;23.20;18.23;;;15.00;99.90;;;;;;5016435;28;20131;-65
2023/08/23 00:18:37;;;;;;;22.80;18.90;;;15.00;99.90;;;;;;5016385;28;20051;-66
2023/08/23 00:21:03;;;;;;;26.40;19.90;;;15.00;99.90;;;;;;5016219;28;20437;-66
2023/08/23 00:23:29;;;;;;;28.02;20.30;;;14.90;99.90;;;;;;5015132;28;20451;-66
2023/08/23 00:25:54;;;;;;;27.60;20.42;;;14.90;99.90;;;;;;4999362;28;20246;-66
2023/08/23 00:28:20;;;;;;;25.05;19.45;;;14.90;99.90;;;;;;5015126;28;20399;-66
2023/08/23 00:30:53;;;;;;;28.50;21.38;;;14.90;99.90;;;;;;5015782;28;20470;-66
2023/08/23 00:33:19;;;;;;;23.88;20.20;;;14.90;99.90;;;;;;5031151;28;20382;-65
2023/08/23 00:35:45;;;;;;;33.55;24.30;;;14.90;99.90;;;;;;4997126;28;20078;-66
2023/08/23 00:38:12;;;;;;;25.88;19.77;;;14.90;99.90;;;;;;5033503;28;20129;-66
2023/08/23 00:40:38;;;;;;;25.00;20.10;;;14.90;99.90;;;;;;5034545;28;20257;-65
2023/08/23 00:43:07;;;;;;;33.70;22.67;;;14.90;99.90;;;;;;5016175;28;20106;-66
2023/08/23 00:45:34;;;;;;;27.20;23.13;;;14.80;99.90;;;;;;5016774;28;20106;-66
2023/08/23 00:47:59;;;;;;;35.20;24.83;;;14.80;99.90;;;;;;5033864;28;20154;-66
2023/08/23 00:50:25;;;;;;;33.92;22.60;;;14.90;99.90;;;;;;5016251;28;20123;-66
2023/08/23 00:52:51;;;;;;;33.75;25.15;;;14.90;99.90;;;;;;4999786;28;20109;-66
2023/08/23 00:55:17;;;;;;;33.13;26.23;;;14.90;99.90;;;;;;4998728;28;20283;-66
2023/08/23 00:57:43;;;;;;;35.60;25.23;;;15.00;99.90;;;;;;5015815;28;20381;-66
2023/08/23 01:00:10;;;;;;;30.45;22.90;;;14.90;99.90;;;;;;4999494;28;20049;-66
2023/08/23 01:02:35;;;;;;;36.35;25.65;;;14.90;99.90;;;;;;5015429;28;20040;-66
2023/08/23 01:05:02;;;;;;;30.38;21.77;;;14.70;99.90;;;;;;4992606;28;20264;-66
2023/08/23 01:07:39;;;;;;;33.28;23.65;;;14.80;99.90;;;;;;4998660;28;20044;-66
2023/08/23 01:10:17;;;;;;;30.15;23.30;;;14.80;99.90;;;;;;5033706;28;20687;-66
2023/08/23 01:12:54;;;;;;;33.30;25.13;;;14.90;99.90;;;;;;5015290;28;20047;-66
2023/08/23 01:15:23;;;;;;;31.45;22.92;;;14.90;99.90;;;;;;5015229;28;20059;-66
2023/08/23 01:17:50;;;;;;;30.35;21.48;;;14.90;99.90;;;;;;5033125;28;20153;-66
2023/08/23 01:20:17;;;;;;;31.30;23.80;;;14.90;99.90;;;;;;5015043;28;20084;-66
2023/08/23 01:22:54;;;;;;;38.67;25.08;;;14.80;99.90;;;;;;5033376;28;20601;-66
2023/08/23 01:25:20;;;;;;;34.03;24.33;;;14.80;99.90;;;;;;5014665;28;20048;-66
2023/08/23 01:27:46;;;;;;;39.55;25.98;;;14.70;99.90;;;;;;5015004;28;20367;-66
2023/08/23 01:30:13;;;;;;;36.17;24.67;;;14.70;99.90;;;;;;5032676;28;20349;-66
2023/08/23 01:33:05;;;;;;;38.55;26.17;;;14.80;99.90;;;;;;5015067;28;20155;-66
2023/08/23 01:35:43;;;;;;;31.25;23.98;;;14.60;99.90;;;;;;5015075;28;20044;-66
2023/08/23 01:38:10;;;;;;;37.13;26.25;;;14.70;99.90;;;;;;5001951;28;20669;-66
2023/08/23 01:40:37;;;;;;;37.92;24.30;;;14.70;99.90;;;;;;5032419;28;20522;-66
2023/08/23 01:43:03;;;;;;;41.35;27.30;;;14.70;99.90;;;;;;5014893;28;20335;-66
2023/08/23 01:45:29;;;;;;;39.80;24.85;;;14.70;99.90;;;;;;4997311;28;20052;-66
2023/08/23 01:47:54;;;;;;;38.33;25.52;;;14.70;99.90;;;;;;5014942;28;20322;-66
2023/08/23 01:50:20;;;;;;;34.83;24.67;;;14.80;99.90;;;;;;4997804;28;20045;-66
2023/08/23 01:52:46;;;;;;;43.75;27.83;;;14.70;99.90;;;;;;5019885;28;20036;-66
2023/08/23 01:55:17;;;;;;;36.22;25.40;;;14.70;99.90;;;;;;5014687;28;20119;-66
2023/08/23 01:57:44;;;;;;;41.08;25.88;;;14.70;99.90;;;;;;5033168;28;20181;-65
2023/08/23 02:00:10;;;;;;;41.28;26.83;;;14.80;99.90;;;;;;5032089;28;20611;-65
2023/08/23 02:02:36;;;;;;;43.33;27.70;;;14.70;99.90;;;;;;4978539;28;20076;-65
2023/08/23 02:05:02;;;;;;;42.70;26.83;;;14.70;99.90;;;;;;5032200;28;20127;-65
2023/08/23 02:07:27;;;;;;;37.53;25.80;;;14.60;99.90;;;;;;5012974;28;20041;-66
2023/08/23 02:09:53;;;;;;;38.08;25.27;;;14.80;99.90;;;;;;5014218;28;20531;-66
2023/08/23 02:12:20;;;;;;;42.15;26.02;;;14.60;99.90;;;;;;5031114;28;20041;-66
2023/08/23 02:14:45;;;;;;;39.85;26.92;;;14.70;99.90;;;;;;5013645;28;20358;-66
2023/08/23 02:17:12;;;;;;;42.45;26.77;;;14.70;99.90;;;;;;4996948;28;20487;-66
2023/08/23 02:19:38;;;;;;;42.20;27.52;;;14.70;99.90;;;;;;4989386;28;20135;-66
2023/08/23 02:22:03;;;;;;;52.15;30.33;;;14.70;99.90;;;;;;5031668;28;20543;-66
2023/08/23 02:24:29;;;;;;;58.08;31.33;;;14.60;99.90;;;;;;4997933;28;20126;-66
2023/08/23 02:26:56;;;;;;;59.22;31.92;;;14.70;99.90;;;;;;5013971;28;20037;-66
2023/08/23 02:29:22;;;;;;;72.35;35.83;;;14.60;99.90;;;;;;5012936;28;20051;-66
2023/08/23 02:31:47;;;;;;;82.57;34.63;;;14.60;99.90;;;;;;4997416;28;20041;-66
2023/08/23 02:34:13;;;;;;;65.35;34.83;;;14.60;99.90;;;;;;5031063;28;20110;-66
2023/08/23 02:36:39;;;;;;;55.22;30.20;;;14.70;99.90;;;;;;4996519;28;20080;-66
2023/08/23 02:39:04;;;;;;;58.33;32.20;;;14.60;99.90;;;;;;5013381;28;20048;-66
2023/08/23 02:41:30;;;;;;;56.55;30.42;;;14.60;99.90;;;;;;4997178;28;20588;-66
2023/08/23 02:43:56;;;;;;;39.78;26.13;;;14.60;99.90;;;;;;5013708;28;20048;-66
2023/08/23 02:46:21;;;;;;;53.78;30.38;;;14.40;99.90;;;;;;4989454;28;20072;-66
2023/08/23 02:48:48;;;;;;;39.40;25.52;;;14.50;99.90;;;;;;5012783;28;20045;-66
2023/08/23 02:51:14;;;;;;;48.58;28.92;;;14.50;99.90;;;;;;5030818;28;20044;-66
2023/08/23 02:53:40;;;;;;;58.00;30.17;;;14.40;99.90;;;;;;5031581;28;20910;-66
2023/08/23 02:56:05;;;;;;;54.88;31.10;;;14.40;99.90;;;;;;4995117;28;20649;-66
2023/08/23 02:58:31;;;;;;;55.17;31.45;;;14.40;99.90;;;;;;4988581;28;20510;-66
2023/08/23 03:00:57;;;;;;;59.17;33.40;;;14.50;99.90;;;;;;5004157;28;20106;-64
2023/08/23 03:03:22;;;;;;;67.38;33.40;;;14.40;99.90;;;;;;5013152;28;20044;-65
2023/08/23 03:05:56;;;;;;;68.70;33.35;;;14.40;99.90;;;;;;5012425;28;20529;-65
2023/08/23 03:08:22;;;;;;;82.78;35.08;;;14.40;99.90;;;;;;5012234;28;20040;-65
2023/08/23 03:10:48;;;;;;;97.68;34.78;;;14.50;99.90;;;;;;4996783;28;20037;-65
2023/08/23 03:13:14;;;;;;;85.40;34.53;;;14.50;99.90;;;;;;5013245;28;20048;-65
2023/08/23 03:15:40;;;;;;;87.97;35.30;;;14.60;99.90;;;;;;5012679;28;20037;-66
2023/08/23 03:18:05;;;;;;;75.78;33.47;;;14.50;99.90;;;;;;5012562;28;20052;-66
2023/08/23 03:20:31;;;;;;;105.63;37.63;;;14.60;99.90;;;;;;5012736;28;20522;-66
2023/08/23 03:22:57;;;;;;;76.25;33.92;;;14.60;99.90;;;;;;4996199;28;20072;-67
2023/08/23 03:25:23;;;;;;;82.32;33.33;;;14.40;99.90;;;;;;5029260;28;20314;-66
2023/08/23 03:27:52;;;;;;;73.25;32.70;;;14.60;99.90;;;;;;5011469;28;20643;-66
2023/08/23 03:30:18;;;;;;;83.05;34.20;;;14.70;99.90;;;;;;5011288;28;20045;-66
2023/08/23 03:32:44;;;;;;;71.15;33.58;;;14.70;99.90;;;;;;4969225;28;20450;-66
2023/08/23 03:35:10;;;;;;;77.25;33.08;;;14.60;99.90;;;;;;5012471;28;20044;-66
2023/08/23 03:37:35;;;;;;;71.20;32.20;;;14.50;99.90;;;;;;5030501;28;20063;-66
2023/08/23 03:40:01;;;;;;;70.50;31.90;;;14.80;99.90;;;;;;5030707;28;20047;-66
2023/08/23 03:42:27;;;;;;;60.42;30.67;;;14.50;99.90;;;;;;5030194;28;20116;-66
2023/08/23 03:44:53;;;;;;;77.32;32.25;;;14.60;99.90;;;;;;5012298;28;20169;-66
2023/08/23 03:47:19;;;;;;;82.22;31.55;;;14.50;99.90;;;;;;5012370;28;20044;-66
2023/08/23 03:49:44;;;;;;;76.00;31.35;;;14.70;99.90;;;;;;5012350;28;20029;-66
2023/08/23 03:52:10;;;;;;;74.90;31.20;;;14.50;99.90;;;;;;5011619;28;20041;-66
2023/08/23 03:54:36;;;;;;;76.18;32.75;;;14.60;99.90;;;;;;5030367;28;20067;-66
2023/08/23 03:57:02;;;;;;;83.13;35.17;;;14.70;99.90;;;;;;4995550;28;20398;-66
2023/08/23 03:59:27;;;;;;;59.70;29.48;;;14.50;99.90;;;;;;5029986;28;20037;-66
2023/08/23 04:01:53;;;;;;;62.88;30.42;;;14.50;99.90;;;;;;5011178;28;20041;-66
2023/08/23 04:04:19;;;;;;;58.78;30.33;;;14.60;99.90;;;;;;5012154;28;20060;-66
2023/08/23 04:06:44;;;;;;;59.90;31.20;;;14.60;99.90;;;;;;4989443;28;20048;-66
2023/08/23 04:09:10;;;;;;;60.50;30.13;;;14.60;99.90;;;;;;5012383;28;20113;-66
2023/08/23 04:11:36;;;;;;;59.67;30.67;;;14.90;99.90;;;;;;4994953;28;20043;-66
2023/08/23 04:14:02;;;;;;;62.80;30.85;;;14.80;99.90;;;;;;5012130;28;20045;-66
2023/08/23 04:16:27;;;;;;;57.47;29.80;;;14.70;99.90;;;;;;5011958;28;20041;-66
2023/08/23 04:18:54;;;;;;;48.85;27.88;;;14.90;99.90;;;;;;4994091;28;20052;-66
2023/08/23 04:21:20;;;;;;;48.65;27.23;;;14.70;99.90;;;;;;5011732;28;20087;-67
2023/08/23 04:23:46;;;;;;;54.42;29.25;;;14.70;99.90;;;;;;4991257;28;20124;-66
2023/08/23 04:26:11;;;;;;;46.35;26.02;;;14.80;99.90;;;;;;5011511;28;20060;-66
2023/08/23 04:28:37;;;;;;;61.80;30.63;;;14.70;99.90;;;;;;5010172;28;20134;-66
2023/08/23 04:31:03;;;;;;;55.88;28.70;;;14.90;99.90;;;;;;5029510;28;20037;-66
2023/08/23 04:33:29;;;;;;;61.95;31.10;;;14.70;99.90;;;;;;5029672;28;20036;-66
2023/08/23 04:35:55;;;;;;;56.60;31.17;;;14.70;99.90;;;;;;4997348;28;20566;-65
2023/08/23 04:38:21;;;;;;;64.50;30.08;;;14.90;99.90;;;;;;5015739;28;20040;-66
2023/08/23 04:40:46;;;;;;;48.15;30.20;;;14.70;99.90;;;;;;5015338;28;20542;-65
2023/08/23 04:43:12;;;;;;;61.28;31.25;;;14.70;99.90;;;;;;5014971;28;20063;-65
2023/08/23 04:45:40;;;;;;;63.35;32.00;;;15.00;99.90;;;;;;5033754;28;20044;-65
2023/08/23 04:48:06;;;;;;;67.47;31.63;;;15.10;99.90;;;;;;4997963;28;20372;-65
2023/08/23 04:50:33;;;;;;;57.00;30.15;;;14.90;99.90;;;;;;5015511;28;20717;-66
2023/08/23 04:52:59;;;;;;;64.30;31.15;;;15.10;99.90;;;;;;5033174;28;20043;-66
2023/08/23 04:55:25;;;;;;;60.42;30.60;;;15.20;99.90;;;;;;4999088;28;20072;-65
2023/08/23 04:57:51;;;;;;;56.10;29.73;;;15.30;99.90;;;;;;5032960;28;20041;-66
2023/08/23 05:00:17;;;;;;;62.90;31.33;;;15.40;99.90;;;;;;4997954;28;20071;-65
2023/08/23 05:02:43;;;;;;;58.78;31.75;;;15.40;99.90;;;;;;5015005;28;20052;-65
2023/08/23 05:05:08;;;;;;;56.60;30.30;;;15.20;99.90;;;;;;4999233;28;20781;-65
2023/08/23 05:07:35;;;;;;;48.92;27.30;;;15.30;99.90;;;;;;4976953;28;20522;-65
2023/08/23 05:10:01;;;;;;;52.97;30.45;;;15.50;99.90;;;;;;5032954;28;20091;-65
2023/08/23 05:12:26;;;;;;;51.70;29.75;;;15.50;99.90;;;;;;4976331;28;20420;-65
2023/08/23 05:14:52;;;;;;;49.05;29.45;;;15.80;99.90;;;;;;5014467;28;20336;-65
2023/08/23 05:17:18;;;;;;;55.00;30.20;;;15.80;99.90;;;;;;5014774;28;20068;-65
2023/08/23 05:19:44;;;;;;;49.75;29.90;;;15.80;99.90;;;;;;5012884;28;20076;-65
2023/08/23 05:22:10;;;;;;;52.85;30.13;;;15.50;99.90;;;;;;4998751;28;20128;-65
2023/08/23 05:24:36;;;;;;;51.08;29.05;;;15.80;99.90;;;;;;4987497;28;20124;-66
2023/08/23 05:27:02;;;;;;;59.22;30.73;;;15.80;99.90;;;;;;5015344;28;20055;-66
2023/08/23 05:29:27;;;;;;;49.28;28.38;;;15.60;99.90;;;;;;5014166;28;20055;-66
2023/08/23 05:31:53;;;;;;;71.07;31.48;;;15.80;99.90;;;;;;4994063;28;20036;-66
2023/08/23 05:34:19;;;;;;;59.63;32.22;;;15.50;99.90;;;;;;4997742;28;20037;-66
2023/08/23 05:36:44;;;;;;;53.50;28.95;;;15.50;99.90;;;;;;4989129;28;20369;-65
2023/08/23 05:39:10;;;;;;;46.40;27.48;;;15.90;99.90;;;;;;4960152;28;20057;-65
2023/08/23 05:41:36;;;;;;;55.50;30.27;;;15.90;99.90;;;;;;5033026;28;20610;-65
2023/08/23 05:44:02;;;;;;;48.63;28.75;;;15.70;99.90;;;;;;4981959;28;20040;-64
2023/08/23 05:46:27;;;;;;;55.90;32.33;;;15.90;99.90;;;;;;4996440;28;20644;-66
2023/08/23 05:48:53;;;;;;;51.53;31.02;;;15.90;99.90;;;;;;4977220;28;20041;-66
2023/08/23 05:51:20;;;;;;;57.03;32.30;;;15.90;99.90;;;;;;4995833;28;20815;-66
2023/08/23 05:53:46;;;;;;;60.17;31.38;;;15.90;99.90;;;;;;5013941;28;20037;-66
2023/08/23 05:56:12;;;;;;;54.75;30.38;;;16.20;99.90;;;;;;4996444;28;20441;-66
2023/08/23 05:58:37;;;;;;;51.05;30.08;;;15.90;99.90;;;;;;5013891;28;20048;-66
2023/08/23 06:01:03;;;;;;;47.47;28.75;;;16.00;99.90;;;;;;5013977;28;20048;-66
2023/08/23 06:03:29;;;;;;;49.80;30.92;;;16.10;99.90;;;;;;4997049;28;20043;-65
2023/08/23 06:05:55;;;;;;;49.33;30.65;;;16.20;99.90;;;;;;5014460;28;20028;-66
2023/08/23 06:08:21;;;;;;;40.97;28.13;;;16.60;99.90;;;;;;5013698;28;20061;-66
2023/08/23 06:10:47;;;;;;;35.25;26.77;;;16.80;99.90;;;;;;5014688;28;20037;-66
2023/08/23 06:13:13;;;;;;;35.15;24.23;;;16.60;99.90;;;;;;5014638;28;20045;-67
2023/08/23 06:15:38;;;;;;;33.90;23.80;;;17.00;99.90;;;;;;5017157;28;20041;-65
2023/08/23 06:18:05;;;;;;;32.25;23.10;;;17.10;99.90;;;;;;5012660;28;20218;-65
2023/08/23 06:20:31;;;;;;;29.88;21.95;;;17.00;99.90;;;;;;4993878;28;20033;-64
2023/08/23 06:22:57;;;;;;;30.65;22.48;;;17.00;99.90;;;;;;5028829;28;20037;-65
2023/08/23 06:25:23;;;;;;;29.35;22.42;;;17.20;99.90;;;;;;5029479;28;20398;-66
2023/08/23 06:27:49;;;;;;;22.85;18.15;;;17.50;99.90;;;;;;5002456;28;20044;-65
2023/08/23 06:30:15;;;;;;;20.40;17.83;;;17.70;99.90;;;;;;5011551;28;20040;-67
2023/08/23 06:32:48;;;;;;;20.38;16.55;;;18.20;99.90;;;;;;5000764;28;20045;-65
2023/08/23 06:35:15;;;;;;;23.98;16.42;;;18.20;99.90;;;;;;5027934;28;20052;-65
2023/08/23 06:37:41;;;;;;;19.27;17.17;;;18.60;99.90;;;;;;5011926;28;20041;-65
2023/08/23 06:40:10;;;;;;;17.95;15.98;;;19.00;99.90;;;;;;5045764;28;20851;-65
2023/08/23 06:42:36;;;;;;;19.35;16.38;;;19.20;99.90;;;;;;5046425;28;20044;-66
2023/08/23 06:45:02;;;;;;;16.00;14.30;;;19.20;99.90;;;;;;4992632;28;20115;-66
2023/08/23 06:47:28;;;;;;;18.88;15.95;;;19.30;99.90;;;;;;5003532;28;20241;-65
2023/08/23 06:49:53;;;;;;;17.65;14.90;;;19.40;99.90;;;;;;5046402;28;20043;-64
2023/08/23 06:52:19;;;;;;;19.60;15.15;;;19.80;99.90;;;;;;5011823;28;20131;-65
2023/08/23 06:54:45;;;;;;;17.52;14.60;;;20.20;99.90;;;;;;5027749;28;20570;-66
2023/08/23 06:57:10;;;;;;;16.73;13.02;;;20.40;99.90;;;;;;5011549;28;20060;-67
2023/08/23 06:59:36;;;;;;;14.95;12.65;;;20.40;99.90;;;;;;5028613;28;20037;-65
2023/08/23 07:02:03;;;;;;;16.30;13.45;;;20.80;99.90;;;;;;5028944;28;20411;-66
2023/08/23 07:04:29;;;;;;;18.55;13.95;;;20.60;99.90;;;;;;5011843;28;20403;-65
2023/08/23 07:06:54;;;;;;;14.85;12.60;;;20.60;99.90;;;;;;5032595;28;20234;-65
2023/08/23 07:09:20;;;;;;;14.52;12.02;;;20.60;99.90;;;;;;5010305;28;20044;-64
2023/08/23 07:11:46;;;;;;;16.75;12.63;;;20.60;99.90;;;;;;5011350;28;20037;-64
2023/08/23 07:14:12;;;;;;;14.27;11.52;;;20.90;99.90;;;;;;5011238;28;20045;-65
2023/08/23 07:16:37;;;;;;;15.93;12.07;;;21.10;99.90;;;;;;5046053;28;20040;-64
2023/08/23 07:19:03;;;;;;;12.32;10.95;;;21.10;99.90;;;;;;5046025;28;20363;-67
2023/08/23 07:21:30;;;;;;;12.93;11.38;;;21.30;99.90;;;;;;4997361;28;20041;-65
2023/08/23 07:23:56;;;;;;;14.10;10.73;;;21.30;99.90;;;;;;5030106;28;20076;-68
2023/08/23 07:26:21;;;;;;;13.27;11.48;;;21.30;99.90;;;;;;4997476;28;20564;-66
2023/08/23 07:32:11;;;;;;;12.27;10.70;;;21.50;99.90;;;;;;5046251;28;20049;-65
2023/08/23 07:35:00;;;;;;;13.57;10.40;;;21.60;99.90;;;;;;5044849;28;20056;-65
2023/08/23 07:37:27;;;;;;;11.40;9.75;;;22.00;99.90;;;;;;5027003;28;20167;-64
2023/08/23 07:39:55;;;;;;;10.60;9.45;;;22.20;99.90;;;;;;5028174;28;20059;-65
2023/08/23 07:42:21;;;;;;;11.55;8.70;;;22.20;99.90;;;;;;5010893;28;20363;-64
2023/08/23 07:44:47;;;;;;;9.95;8.95;;;22.40;99.90;;;;;;5028946;28;20048;-65
2023/08/23 07:47:12;;;;;;;9.23;7.70;;;22.50;99.90;;;;;;5028751;28;20395;-66
2023/08/23 07:49:38;;;;;;;8.77;7.82;;;22.40;99.90;;;;;;5029383;28;20049;-66
2023/08/23 07:52:04;;;;;;;8.50;7.60;;;22.40;99.90;;;;;;5013025;28;20120;-65
2023/08/23 07:54:30;;;;;;;8.82;7.93;;;22.60;99.90;;;;;;5013049;28;20040;-65
2023/08/23 07:56:56;;;;;;;7.80;6.97;;;22.70;99.90;;;;;;4996669;28;20057;-65
2023/08/23 07:59:22;;;;;;;9.48;7.63;;;22.90;99.90;;;;;;5029071;28;20079;-65
2023/08/23 08:01:47;;;;;;;9.20;8.20;;;22.90;99.90;;;;;;5029967;28;20048;-65
2023/08/23 08:04:13;;;;;;;9.55;7.47;;;23.20;99.90;;;;;;5012949;28;20091;-66
2023/08/23 08:06:39;;;;;;;9.23;7.50;;;23.30;99.90;;;;;;5013493;28;20163;-65
2023/08/23 08:09:05;;;;;;;8.90;7.50;;;23.00;99.90;;;;;;5028589;28;20080;-65
2023/08/23 08:11:31;;;;;;;8.15;7.35;;;23.00;99.90;;;;;;5031589;28;20187;-66
2023/08/23 08:13:57;;;;;;;8.70;7.80;;;22.90;99.90;;;;;;5033705;28;20029;-66
2023/08/23 08:16:23;;;;;;;9.70;8.52;;;22.60;99.90;;;;;;5015913;28;20101;-65
2023/08/23 08:18:49;;;;;;;7.90;7.20;;;22.60;99.90;;;;;;5032122;28;20037;-65
2023/08/23 08:21:14;;;;;;;9.52;7.47;;;22.70;99.90;;;;;;5000194;28;20121;-64
2023/08/23 08:23:40;;;;;;;7.25;6.13;;;22.80;99.90;;;;;;5016403;28;20118;-65
2023/08/23 08:26:06;;;;;;;7.95;7.18;;;22.60;99.90;;;;;;5033241;28;20406;-65
2023/08/23 08:28:32;;;;;;;8.45;6.25;;;22.50;99.90;;;;;;5032397;28;20048;-65
2023/08/23 08:31:00;;;;;;;6.78;5.97;;;22.80;99.90;;;;;;5016218;28;20036;-66
2023/08/23 08:33:26;;;;;;;5.55;4.88;;;22.80;99.90;;;;;;5034061;28;20048;-65
2023/08/23 08:35:52;;;;;;;6.43;5.30;;;23.10;99.90;;;;;;5032112;28;20052;-65
2023/08/23 08:38:18;;;;;;;6.10;5.13;;;23.40;99.90;;;;;;5050383;28;20045;-65
2023/08/23 08:40:44;;;;;;;8.77;5.35;;;23.60;99.90;;;;;;5050263;28;20505;-68
2023/08/23 08:43:10;;;;;;;8.27;5.60;;;23.50;99.90;;;;;;5031819;28;20044;-65
2023/08/23 08:45:37;;;;;;;5.50;5.00;;;23.70;99.90;;;;;;5031649;28;20036;-66
2023/08/23 08:48:03;;;;;;;6.53;5.40;;;23.70;99.90;;;;;;5049647;28;20152;-65
2023/08/23 08:50:34;;;;;;;6.45;5.85;;;23.50;99.90;;;;;;5031739;28;20120;-66
2023/08/23 08:53:03;;;;;;;5.78;5.28;;;23.40;99.90;;;;;;5050658;28;20128;-65
2023/08/23 08:55:30;;;;;;;7.10;5.60;;;23.50;99.90;;;;;;5012312;28;20065;-64
2023/08/23 08:57:57;;;;;;;6.20;5.38;;;24.00;99.90;;;;;;5031575;28;20063;-65
2023/08/23 09:00:25;;;;;;;7.57;5.93;;;24.20;99.90;;;;;;5014956;28;20051;-65
2023/08/23 09:02:55;;;;;;;7.25;5.22;;;24.30;99.90;;;;;;5049428;28;20036;-64
2023/08/23 09:05:40;;;;;;;6.90;4.72;;;24.80;94.60;;;;;;5031378;28;20056;-66
2023/08/23 09:08:09;;;;;;;9.00;5.68;;;24.90;67.40;;;;;;5030847;28;20048;-65
2023/08/23 09:10:35;;;;;;;5.93;5.30;;;25.00;62.70;;;;;;5030944;28;20471;-64
2023/08/23 09:13:01;;;;;;;7.10;5.25;;;25.00;60.00;;;;;;5030305;28;20054;-65
2023/08/23 09:15:26;;;;;;;5.57;5.00;;;25.40;50.80;;;;;;5013836;28;20037;-65
2023/08/23 09:17:54;;;;;;;7.85;4.82;;;25.50;39.10;;;;;;5017104;28;20044;-65
2023/08/23 09:20:21;;;;;;;5.43;4.95;;;25.60;28.10;;;;;;5033779;28;20052;-66
2023/08/23 09:22:54;;;;;;;8.43;4.55;;;25.60;20.80;;;;;;5017065;28;20060;-64
2023/08/23 09:25:22;;;;;;;5.65;4.90;;;25.60;21.40;;;;;;5017296;28;20234;-65
2023/08/23 09:27:47;;;;;;;7.35;4.57;;;26.00;16.60;;;;;;5015803;28;21004;-65
2023/08/23 09:30:14;;;;;;;7.18;4.15;;;25.50;10.60;;;;;;4998421;28;20059;-65
2023/08/23 09:32:49;;;;;;;5.50;4.22;;;24.90;17.40;;;;;;5024686;28;20041;-67
2023/08/23 09:35:18;;;;;;;7.82;4.35;;;24.60;26.80;;;;;;5015196;28;20720;-66
2023/08/23 09:37:47;;;;;;;5.53;3.90;;;24.70;25.60;;;;;;4998953;28;20257;-67
2023/08/23 09:40:18;;;;;;;5.40;4.20;;;24.70;26.00;;;;;;5033386;28;20063;-65
2023/08/23 09:42:46;;;;;;;7.37;4.03;;;24.40;22.00;;;;;;5032688;28;20402;-66
2023/08/23 09:45:21;;;;;;;4.72;3.25;;;24.70;23.90;;;;;;5015433;28;20649;-66
2023/08/23 09:47:54;;;;;;;5.40;3.00;;;25.00;20.10;;;;;;5031664;28;20499;-65
2023/08/23 09:50:22;;;;;;;5.95;3.30;;;25.70;15.70;;;;;;5032976;28;20045;-66
2023/08/23 09:52:57;;;;;;;4.45;3.25;;;26.30;1.00;;;;;;4998791;28;20266;-66
2023/08/23 09:55:24;;;;;;;4.10;3.35;;;26.80;1.00;;;;;;5015292;28;20056;-67
2023/08/23 09:57:52;;;;;;;5.13;3.17;;;27.00;1.00;;;;;;5014827;28;20330;-67
2023/08/23 10:00:18;;;;;;;6.95;3.92;;;26.70;1.00;;;;;;5015582;28;20487;-66
2023/08/23 10:02:46;;;;;;;4.63;2.60;;;26.60;1.00;;;;;;5015195;28;20068;-66
2023/08/23 10:05:12;;;;;;;6.80;2.63;;;26.20;1.00;;;;;;5015219;28;20067;-67
2023/08/23 10:07:40;;;;;;;5.53;3.13;;;26.10;1.00;;;;;;5032694;28;20047;-65
2023/08/23 10:10:07;;;;;;;6.97;3.40;;;26.10;1.00;;;;;;5032626;28;20162;-66
2023/08/23 10:12:42;;;;;;;3.80;2.42;;;26.60;1.00;;;;;;4984838;28;20472;-66
2023/08/23 10:15:11;;;;;;;4.53;2.85;;;26.80;1.00;;;;;;5014741;28;20209;-68
2023/08/23 10:17:38;;;;;;;4.85;3.00;;;26.70;1.00;;;;;;5014551;28;20384;-67
2023/08/23 10:20:14;;;;;;;7.13;2.72;;;26.40;1.00;;;;;;5014331;28;20575;-67
2023/08/23 10:22:40;;;;;;;3.92;1.92;;;26.00;1.00;;;;;;5032688;28;20802;-67
2023/08/23 10:25:21;;;;;;;3.78;1.70;;;26.20;1.00;;;;;;5014872;28;20496;-67
2023/08/23 10:27:51;;;;;;;5.28;2.20;;;26.90;1.00;;;;;;5014514;28;20343;-67
2023/08/23 10:30:28;;;;;;;5.55;2.80;;;26.60;1.00;;;;;;4998683;28;20072;-66
2023/08/23 10:33:06;;;;;;;7.07;3.10;;;25.90;1.00;;;;;;5032379;28;20268;-66
2023/08/23 10:35:32;;;;;;;5.25;3.20;;;25.20;1.00;;;;;;5032608;28;20068;-67
2023/08/23 10:37:59;;;;;;;7.72;3.80;;;24.70;1.50;;;;;;5014271;28;20064;-66
2023/08/23 10:40:29;;;;;;;7.22;5.13;;;24.40;13.80;;;;;;5013789;28;20036;-66
2023/08/23 10:42:55;;;;;;;7.43;4.53;;;24.70;16.60;;;;;;5014918;28;20199;-66
2023/08/23 10:45:21;;;;;;;6.60;4.30;;;24.90;13.80;;;;;;5031897;28;20102;-67
2023/08/23 10:47:49;;;;;;;6.18;4.10;;;25.50;4.60;;;;;;4998173;28;20079;-67
2023/08/23 10:50:16;;;;;;;6.35;3.10;;;25.50;1.00;;;;;;5032327;28;20243;-66
2023/08/23 10:52:42;;;;;;;4.82;2.58;;;25.60;1.00;;;;;;5032610;28;20388;-66
2023/08/23 10:55:08;;;;;;;4.82;2.53;;;25.40;1.00;;;;;;5031786;28;20051;-67
2023/08/23 10:57:34;;;;;;;6.28;2.60;;;25.60;1.00;;;;;;5032611;28;20060;-67
2023/08/23 11:00:00;;;;;;;6.35;3.00;;;26.10;1.00;;;;;;5014021;28;20059;-66
2023/08/23 11:02:27;;;;;;;6.53;3.40;;;26.20;1.00;;;;;;5014138;28;20419;-66
2023/08/23 11:04:53;;;;;;;6.55;2.70;;;26.60;1.00;;;;;;5013221;28;20518;-66
2023/08/23 11:07:24;;;;;;;5.93;2.88;;;27.10;1.00;;;;;;5013366;28;20120;-65
2023/08/23 11:09:49;;;;;;;8.10;3.65;;;27.60;1.00;;;;;;4997474;28;20546;-66
2023/08/23 11:12:15;;;;;;;6.85;2.42;;;28.00;1.00;;;;;;5014705;28;20061;-66
2023/08/23 11:14:40;;;;;;;6.72;2.50;;;28.50;1.00;;;;;;5031794;28;20040;-67
2023/08/23 11:17:07;;;;;;;2.92;2.10;;;28.60;1.00;;;;;;5031515;28;20028;-67
2023/08/23 11:19:33;;;;;;;5.35;2.47;;;28.90;1.00;;;;;;4980640;28;20277;-65
2023/08/23 11:22:00;;;;;;;4.68;2.03;;;28.80;1.00;;;;;;5013781;28;20511;-66
2023/08/23 11:24:26;;;;;;;3.95;1.70;;;29.00;1.00;;;;;;4997125;28;20564;-67
2023/08/23 11:26:52;;;;;;;5.05;1.95;;;29.30;1.00;;;;;;5013762;28;20037;-65
2023/08/23 11:29:18;;;;;;;4.57;2.30;;;29.30;1.00;;;;;;4997347;28;20053;-66
2023/08/23 11:31:53;;;;;;;6.18;2.30;;;28.80;1.00;;;;;;5013215;28;20197;-67
2023/08/23 11:34:19;;;;;;;6.75;2.17;;;28.50;1.00;;;;;;5031765;28;20041;-67
2023/08/23 11:36:45;;;;;;;7.40;2.88;;;28.10;1.00;;;;;;5031349;28;20052;-66
2023/08/23 11:39:13;;;;;;;5.00;2.90;;;27.50;1.00;;;;;;5013513;28;20052;-66
2023/08/23 11:41:40;;;;;;;5.28;2.53;;;26.80;1.00;;;;;;5013331;28;20100;-66
2023/08/23 11:44:09;;;;;;;5.03;2.33;;;26.50;1.00;;;;;;5031199;28;20052;-66
2023/08/23 11:46:38;;;;;;;6.72;2.10;;;26.10;1.00;;;;;;5034736;28;20032;-66
2023/08/23 11:49:08;;;;;;;6.03;2.20;;;25.90;1.00;;;;;;5017206;28;20121;-66
2023/08/23 11:51:46;;;;;;;5.50;2.53;;;25.80;1.00;;;;;;5036474;28;20335;-66
2023/08/23 11:54:13;;;;;;;7.70;2.30;;;25.70;1.00;;;;;;5017109;28;20048;-66
2023/08/23 11:56:41;;;;;;;3.03;1.85;;;25.80;1.00;;;;;;5033911;28;20402;-66
2023/08/23 11:59:08;;;;;;;3.05;1.63;;;25.90;1.00;;;;;;5033865;28;20333;-66
2023/08/23 12:01:34;;;;;;;5.82;1.33;;;25.90;1.00;;;;;;4998896;28;20041;-66
2023/08/23 12:04:01;;;;;;;3.67;1.00;;;25.80;1.00;;;;;;5016356;28;20049;-66
2023/08/23 12:06:27;;;;;;;2.67;1.15;;;25.80;1.00;;;;;;5015171;28;20041;-66
2023/08/23 12:08:54;;;;;;;2.92;0.77;;;25.90;1.00;;;;;;5033497;28;20373;-67
2023/08/23 12:11:20;;;;;;;2.78;0.80;;;26.10;1.00;;;;;;5015601;28;20041;-66
2023/08/23 12:13:46;;;;;;;4.00;0.80;;;25.90;1.00;;;;;;4999686;28;20048;-66
2023/08/23 12:16:12;;;;;;;2.88;0.90;;;25.80;1.00;;;;;;5016321;28;20032;-65
2023/08/23 12:18:37;;;;;;;3.70;0.65;;;25.70;1.00;;;;;;5016530;28;20308;-67
2023/08/23 12:21:04;;;;;;;5.40;0.68;;;25.50;1.00;;;;;;5015747;28;20106;-66
2023/08/23 12:23:30;;;;;;;4.03;0.98;;;25.30;1.00;;;;;;5015575;28;20584;-66
2023/08/23 12:25:56;;;;;;;4.60;1.80;;;25.50;1.00;;;;;;5033084;28;20048;-66
2023/08/23 12:28:22;;;;;;;6.60;2.30;;;25.90;1.00;;;;;;4999508;28;20080;-66
2023/08/23 12:30:48;;;;;;;9.45;2.85;;;26.20;1.00;;;;;;5033896;28;20036;-65
2023/08/23 12:33:13;;;;;;;3.60;1.92;;;26.60;1.00;;;;;;5015906;28;20404;-67
2023/08/23 12:35:39;;;;;;;6.72;2.30;;;27.70;1.00;;;;;;4999397;28;20044;-67
2023/08/23 12:38:05;;;;;;;5.13;1.98;;;28.30;1.00;;;;;;5032844;28;21113;-67